Time;durP1;ratioP1;P1;durP2;ratioP2;P2;SDS_P1;SDS_P2;PMS_P1;PMS_P2;Temp;Humidity;BMP_temperature;BMP_pressure;BME280_temperature;BME280_humidity;BME280_pressure;Samples;Min_cycle;Max_cycle;Signal;HPM_P1;HPM_P2
2020/12/11 00:02:19;;;;;;;13.10;9.67;;;3.30;99.90;;;;;;4981364;28;20176;-65
2020/12/11 00:04:45;;;;;;;12.00;9.87;;;3.30;99.90;;;;;;5012129;28;20193;-65
2020/12/11 00:07:10;;;;;;;12.10;9.83;;;3.20;99.90;;;;;;5012069;28;20172;-65
2020/12/11 00:09:36;;;;;;;14.03;10.30;;;3.20;99.90;;;;;;5014682;28;20211;-64
2020/12/11 00:12:03;;;;;;;11.97;9.50;;;3.20;99.90;;;;;;5010635;28;20689;-64
2020/12/11 00:14:28;;;;;;;11.80;9.70;;;3.20;99.90;;;;;;5014843;28;20197;-66
2020/12/11 00:16:54;;;;;;;12.20;9.83;;;3.10;99.90;;;;;;5029238;28;20469;-66
2020/12/11 00:19:20;;;;;;;11.77;10.57;;;3.20;99.90;;;;;;5027509;28;20186;-65
2020/12/11 00:21:45;;;;;;;11.60;9.57;;;3.20;99.90;;;;;;5018196;28;20311;-64
2020/12/11 00:24:12;;;;;;;11.50;9.90;;;3.10;99.90;;;;;;5031252;28;20184;-65
2020/12/11 00:26:38;;;;;;;11.47;10.27;;;3.00;99.90;;;;;;5029275;28;20188;-65
2020/12/11 00:29:05;;;;;;;11.83;10.07;;;3.00;99.90;;;;;;5014175;28;20418;-65
2020/12/11 00:31:31;;;;;;;12.97;10.63;;;2.80;99.90;;;;;;5026483;28;20407;-65
2020/12/11 00:33:57;;;;;;;13.10;10.47;;;2.80;99.90;;;;;;5033692;28;20955;-65
2020/12/11 00:36:24;;;;;;;11.67;10.07;;;2.70;99.90;;;;;;5034091;28;20416;-64
2020/12/11 00:38:50;;;;;;;12.17;10.83;;;2.70;99.90;;;;;;5028128;28;20515;-64
2020/12/11 00:41:16;;;;;;;11.57;10.13;;;2.70;99.90;;;;;;5021814;28;20411;-66
2020/12/11 00:43:42;;;;;;;12.47;9.70;;;2.70;99.90;;;;;;5033919;28;20502;-65
2020/12/11 00:46:07;;;;;;;12.57;10.67;;;2.70;99.90;;;;;;5029489;28;20645;-65
2020/12/11 00:48:33;;;;;;;12.23;10.23;;;2.70;99.90;;;;;;5032809;28;20183;-64
2020/12/11 00:50:59;;;;;;;11.77;10.37;;;2.60;99.90;;;;;;5018221;28;20176;-65
2020/12/11 00:53:24;;;;;;;12.20;9.80;;;2.60;99.90;;;;;;5014790;28;20218;-65
2020/12/11 00:55:50;;;;;;;12.67;9.23;;;2.60;99.90;;;;;;5021231;28;20235;-64
2020/12/11 00:58:16;;;;;;;12.77;10.57;;;2.60;99.90;;;;;;5029310;28;20231;-65
2020/12/11 01:00:42;;;;;;;13.87;10.73;;;2.50;99.90;;;;;;5030765;28;20637;-64
2020/12/11 01:03:07;;;;;;;12.40;10.63;;;2.50;99.90;;;;;;5019188;28;20215;-65
2020/12/11 01:05:35;;;;;;;12.67;10.70;;;2.40;99.90;;;;;;5013960;28;20638;-65
2020/12/11 01:08:02;;;;;;;14.07;10.50;;;2.30;99.90;;;;;;5029261;28;20179;-66
2020/12/11 01:10:27;;;;;;;13.63;10.57;;;2.30;99.90;;;;;;5027953;28;20450;-65
2020/12/11 01:12:53;;;;;;;13.60;10.60;;;2.40;99.90;;;;;;5024896;28;20427;-64
2020/12/11 01:15:18;;;;;;;12.13;10.50;;;2.30;99.90;;;;;;5032150;28;20222;-64
2020/12/11 01:17:44;;;;;;;14.17;10.57;;;2.30;99.90;;;;;;5025326;28;20183;-66
2020/12/11 01:20:09;;;;;;;12.43;10.40;;;2.30;99.90;;;;;;5031924;28;20176;-65
2020/12/11 01:22:35;;;;;;;12.63;10.10;;;2.20;99.90;;;;;;5028479;28;20183;-64
2020/12/11 01:25:01;;;;;;;15.33;11.80;;;2.20;99.90;;;;;;5019221;28;20626;-65
2020/12/11 01:27:26;;;;;;;12.87;10.93;;;2.10;99.90;;;;;;5023412;28;20176;-64
2020/12/11 01:29:52;;;;;;;15.93;11.50;;;2.10;99.90;;;;;;5017863;28;20180;-65
2020/12/11 01:32:17;;;;;;;18.17;12.27;;;2.10;99.90;;;;;;5025804;28;20540;-65
2020/12/11 01:34:43;;;;;;;14.97;11.17;;;2.00;99.90;;;;;;5012083;28;20650;-65
2020/12/11 01:37:08;;;;;;;14.50;10.83;;;2.00;99.90;;;;;;5016303;28;21555;-65
2020/12/11 01:39:34;;;;;;;13.57;10.87;;;2.00;99.90;;;;;;5000023;28;20233;-65
2020/12/11 01:42:00;;;;;;;15.20;12.03;;;1.90;99.90;;;;;;5028230;28;20564;-65
2020/12/11 01:44:26;;;;;;;14.87;11.13;;;2.40;99.90;;;;;;5017616;28;20185;-65
2020/12/11 01:46:56;;;;;;;13.70;11.07;;;1.80;99.90;;;;;;5004809;28;20180;-65
2020/12/11 01:49:23;;;;;;;14.87;11.33;;;1.90;99.90;;;;;;5012664;28;20459;-65
2020/12/11 01:51:50;;;;;;;13.07;11.13;;;1.70;99.90;;;;;;5027337;28;20469;-65
2020/12/11 01:54:16;;;;;;;13.63;11.63;;;1.60;99.90;;;;;;5028960;28;20943;-65
2020/12/11 01:57:05;;;;;;;13.77;11.37;;;1.60;99.90;;;;;;5023300;28;20424;-65
2020/12/11 01:59:40;;;;;;;16.37;12.10;;;1.50;99.90;;;;;;5019830;28;20485;-65
2020/12/11 02:02:07;;;;;;;16.73;12.10;;;1.50;99.90;;;;;;5020772;28;20426;-65
2020/12/11 02:04:34;;;;;;;14.23;11.33;;;1.60;99.90;;;;;;5011723;28;20445;-64
2020/12/11 02:06:59;;;;;;;14.17;11.60;;;1.60;99.90;;;;;;5013138;28;20867;-65
2020/12/11 02:09:26;;;;;;;14.00;10.63;;;1.80;99.90;;;;;;5024545;28;20418;-65
2020/12/11 02:11:52;;;;;;;12.50;10.27;;;1.70;99.90;;;;;;5031327;28;20199;-64
2020/12/11 02:14:18;;;;;;;13.67;11.10;;;1.70;99.90;;;;;;5013145;28;20452;-65
2020/12/11 02:16:58;;;;;;;14.17;10.83;;;1.70;99.90;;;;;;4750841;28;7545877;-65
2020/12/11 02:19:29;;;;;;;15.93;10.97;;;1.60;99.90;;;;;;4997270;28;20643;-65
2020/12/11 02:22:05;;;;;;;14.97;11.40;;;1.50;99.90;;;;;;4997389;28;20419;-64
2020/12/11 02:24:31;;;;;;;14.93;11.23;;;1.30;99.90;;;;;;5001440;28;20599;-64
2020/12/11 02:26:57;;;;;;;17.90;11.77;;;1.50;99.90;;;;;;4994431;28;20515;-65
2020/12/11 02:29:24;;;;;;;16.03;11.77;;;1.40;99.90;;;;;;5000434;28;20179;-64
2020/12/11 02:31:50;;;;;;;17.27;11.77;;;1.40;99.90;;;;;;5012024;28;20452;-64
2020/12/11 02:34:16;;;;;;;14.83;11.70;;;1.50;99.90;;;;;;4995968;28;20542;-64
2020/12/11 02:36:42;;;;;;;14.53;10.73;;;1.50;99.90;;;;;;4999373;28;20521;-64
2020/12/11 02:39:08;;;;;;;16.03;11.70;;;1.60;99.90;;;;;;4998669;28;20199;-65
2020/12/11 02:41:33;;;;;;;13.73;10.63;;;1.60;99.90;;;;;;5006513;28;20173;-65
2020/12/11 02:44:00;;;;;;;15.03;12.20;;;1.70;99.90;;;;;;5004699;28;20179;-64
2020/12/11 02:46:26;;;;;;;14.30;10.80;;;1.60;99.90;;;;;;5005517;28;20188;-65
2020/12/11 02:48:51;;;;;;;13.93;11.07;;;1.60;99.90;;;;;;4997851;28;20412;-65
2020/12/11 02:51:17;;;;;;;15.27;11.67;;;1.60;99.90;;;;;;5008187;28;20239;-65
2020/12/11 02:53:42;;;;;;;18.07;11.23;;;1.60;99.90;;;;;;5002012;28;20200;-65
2020/12/11 02:56:08;;;;;;;14.43;11.63;;;1.60;99.90;;;;;;5011909;28;20181;-64
2020/12/11 02:58:34;;;;;;;15.20;11.23;;;1.60;99.90;;;;;;5011528;28;20164;-65
2020/12/11 03:00:59;;;;;;;15.70;11.00;;;1.70;99.90;;;;;;5003593;28;20194;-64
2020/12/11 03:03:25;;;;;;;16.27;11.87;;;1.60;99.90;;;;;;5002250;28;20259;-64
2020/12/11 03:05:50;;;;;;;14.20;11.23;;;1.70;99.90;;;;;;5006088;28;20192;-65
2020/12/11 03:08:16;;;;;;;15.67;11.23;;;1.60;99.90;;;;;;5002897;28;20216;-65
2020/12/11 03:10:42;;;;;;;15.60;11.53;;;1.60;99.90;;;;;;5005573;28;20177;-65
2020/12/11 03:13:07;;;;;;;13.17;11.37;;;1.80;99.90;;;;;;4991937;28;20180;-66
2020/12/11 03:15:39;;;;;;;15.00;11.47;;;1.60;99.90;;;;;;5003479;28;20224;-65
2020/12/11 03:18:05;;;;;;;14.53;11.17;;;1.70;99.90;;;;;;5011508;28;20267;-64
2020/12/11 03:20:30;;;;;;;15.33;11.80;;;1.70;99.90;;;;;;5011259;28;20514;-65
2020/12/11 03:22:56;;;;;;;16.70;11.70;;;1.70;99.90;;;;;;5011309;28;20638;-65
2020/12/11 03:25:23;;;;;;;14.00;11.03;;;1.80;99.90;;;;;;5011122;28;20184;-64
2020/12/11 03:27:48;;;;;;;13.77;11.20;;;1.70;99.90;;;;;;5010982;28;20283;-64
2020/12/11 03:30:14;;;;;;;15.57;11.77;;;1.80;99.90;;;;;;5011346;28;20520;-66
2020/12/11 03:32:40;;;;;;;15.97;12.27;;;1.80;99.90;;;;;;5011319;28;20239;-65
2020/12/11 03:35:05;;;;;;;15.27;11.67;;;1.80;99.90;;;;;;5011260;28;20208;-64
2020/12/11 03:37:31;;;;;;;12.30;10.57;;;1.70;99.90;;;;;;5011138;28;20184;-65
2020/12/11 03:39:57;;;;;;;14.97;11.43;;;1.60;99.90;;;;;;5011330;28;20184;-65
2020/12/11 03:42:23;;;;;;;14.30;11.13;;;1.60;99.90;;;;;;5011064;28;20263;-64
2020/12/11 03:44:48;;;;;;;14.17;11.17;;;1.60;99.90;;;;;;5011196;28;20180;-64
2020/12/11 03:47:14;;;;;;;17.60;11.33;;;1.70;99.90;;;;;;5011362;28;20583;-64
2020/12/11 03:49:39;;;;;;;13.57;10.83;;;1.70;99.90;;;;;;5011140;28;20173;-65
2020/12/11 03:52:05;;;;;;;13.07;10.77;;;1.60;99.90;;;;;;5011634;28;20665;-65
2020/12/11 03:54:31;;;;;;;18.07;10.77;;;1.60;99.90;;;;;;5011270;28;20203;-65
2020/12/11 03:56:56;;;;;;;14.67;11.10;;;1.60;99.90;;;;;;5011097;28;20700;-64
2020/12/11 03:59:22;;;;;;;13.47;10.50;;;1.60;99.90;;;;;;5011104;28;20179;-65
2020/12/11 04:01:47;;;;;;;15.03;11.13;;;1.60;99.90;;;;;;5011077;28;20176;-65
2020/12/11 04:04:13;;;;;;;14.03;10.27;;;1.50;99.90;;;;;;5011026;28;20234;-65
2020/12/11 04:06:38;;;;;;;14.33;11.17;;;1.50;99.90;;;;;;5011186;28;20176;-64
2020/12/11 04:09:04;;;;;;;13.47;10.60;;;1.40;99.90;;;;;;5010910;28;20700;-65
2020/12/11 04:11:30;;;;;;;13.30;9.80;;;1.40;99.90;;;;;;5009534;28;20227;-64
2020/12/11 04:13:55;;;;;;;14.37;10.50;;;1.40;99.90;;;;;;5010884;28;20204;-64
2020/12/11 04:16:21;;;;;;;13.70;10.37;;;1.40;99.90;;;;;;5012239;28;20690;-64
2020/12/11 04:18:46;;;;;;;15.17;10.70;;;1.40;99.90;;;;;;5010768;28;20259;-63
2020/12/11 04:21:14;;;;;;;15.63;9.87;;;1.30;99.90;;;;;;5010983;28;20168;-65
2020/12/11 04:23:40;;;;;;;15.07;10.40;;;1.30;99.90;;;;;;5010904;28;20662;-65
2020/12/11 04:26:05;;;;;;;14.13;10.13;;;1.30;99.90;;;;;;5010750;28;20451;-65
2020/12/11 04:28:31;;;;;;;12.77;9.87;;;1.30;99.90;;;;;;5010773;28;20435;-65
2020/12/11 04:30:57;;;;;;;17.67;10.73;;;1.30;99.90;;;;;;5010536;28;20204;-65
2020/12/11 04:33:23;;;;;;;14.80;10.67;;;1.20;99.90;;;;;;5010354;28;20531;-64
2020/12/11 04:35:48;;;;;;;13.87;10.83;;;1.20;99.90;;;;;;5010579;28;20201;-64
2020/12/11 04:38:14;;;;;;;14.57;10.73;;;1.20;99.90;;;;;;5011882;28;20200;-65
2020/12/11 04:40:39;;;;;;;13.77;11.00;;;1.20;99.90;;;;;;5014101;28;20181;-65
2020/12/11 04:43:09;;;;;;;12.10;9.97;;;1.20;99.90;;;;;;5014112;28;20267;-65
2020/12/11 04:45:37;;;;;;;13.73;10.67;;;1.10;99.90;;;;;;5013092;28;20192;-65
2020/12/11 04:48:02;;;;;;;14.90;11.70;;;1.20;99.90;;;;;;5013963;28;20423;-65
2020/12/11 04:50:28;;;;;;;14.87;11.73;;;1.30;99.90;;;;;;5013905;28;20424;-63
2020/12/11 04:52:57;;;;;;;14.13;10.53;;;1.30;99.90;;;;;;5013911;28;20537;-66
2020/12/11 04:55:22;;;;;;;13.67;10.40;;;1.40;99.90;;;;;;5013977;28;20812;-66
2020/12/11 04:57:51;;;;;;;14.33;11.13;;;1.40;99.90;;;;;;5014062;28;20415;-66
2020/12/11 05:00:19;;;;;;;14.40;10.30;;;1.50;99.90;;;;;;5013870;28;20176;-65
2020/12/11 05:02:49;;;;;;;15.53;11.37;;;1.40;99.90;;;;;;5013787;28;20415;-65
2020/12/11 05:05:17;;;;;;;14.33;10.63;;;1.40;99.90;;;;;;5013741;28;20411;-64
2020/12/11 05:07:44;;;;;;;13.60;10.57;;;1.50;99.90;;;;;;5013913;28;20562;-64
2020/12/11 05:10:12;;;;;;;13.10;10.60;;;1.50;99.90;;;;;;5013493;28;20471;-66
2020/12/11 05:12:38;;;;;;;18.67;11.10;;;1.40;99.90;;;;;;5013606;28;20419;-64
2020/12/11 05:15:09;;;;;;;15.03;10.73;;;1.50;99.90;;;;;;4995754;28;20541;-65
2020/12/11 05:17:37;;;;;;;17.17;11.77;;;1.50;99.90;;;;;;5022548;28;20451;-65
2020/12/11 05:20:04;;;;;;;13.03;10.50;;;1.50;99.90;;;;;;5028545;28;20411;-65
2020/12/11 05:22:40;;;;;;;13.63;10.87;;;1.40;99.90;;;;;;5022578;28;20414;-65
2020/12/11 05:25:13;;;;;;;16.33;11.37;;;1.40;99.90;;;;;;5026506;28;20418;-65
2020/12/11 05:27:42;;;;;;;14.97;11.30;;;1.40;99.90;;;;;;5023398;28;20780;-65
2020/12/11 05:30:07;;;;;;;13.97;10.73;;;1.40;99.90;;;;;;5025304;28;20426;-65
2020/12/11 05:32:35;;;;;;;16.30;12.10;;;1.40;99.90;;;;;;5032704;28;20426;-64
2020/12/11 05:35:00;;;;;;;16.33;12.50;;;1.50;99.90;;;;;;5015539;28;20291;-66
2020/12/11 05:37:26;;;;;;;14.93;12.17;;;1.40;99.90;;;;;;5021663;28;20465;-66
2020/12/11 05:39:51;;;;;;;15.97;11.80;;;1.50;99.90;;;;;;5028585;28;20179;-64
2020/12/11 05:42:17;;;;;;;17.93;11.37;;;1.60;99.90;;;;;;5030381;28;20172;-65
2020/12/11 05:44:42;;;;;;;14.27;10.60;;;1.70;99.90;;;;;;5021132;28;20192;-64
2020/12/11 05:47:23;;;;;;;16.67;12.30;;;1.70;99.90;;;;;;5007761;28;20193;-65
2020/12/11 05:49:50;;;;;;;16.40;11.37;;;1.70;99.90;;;;;;5013016;28;20191;-65
2020/12/11 05:52:22;;;;;;;16.60;11.53;;;1.70;99.90;;;;;;5015799;28;20431;-64
2020/12/11 05:54:53;;;;;;;16.30;10.70;;;1.60;99.90;;;;;;5013914;28;20459;-63
2020/12/11 05:57:20;;;;;;;15.57;12.17;;;1.60;99.90;;;;;;5026569;28;20417;-64
2020/12/11 05:59:46;;;;;;;13.73;11.20;;;1.60;99.90;;;;;;5022365;28;20913;-64
2020/12/11 06:02:12;;;;;;;15.60;11.43;;;1.60;99.90;;;;;;5012634;28;20565;-64
2020/12/11 06:04:38;;;;;;;16.33;12.20;;;1.60;99.90;;;;;;5012619;28;20177;-65
2020/12/11 06:07:13;;;;;;;17.27;12.33;;;1.60;99.90;;;;;;5030087;28;20423;-65
2020/12/11 06:09:42;;;;;;;16.90;12.07;;;1.60;99.90;;;;;;5026529;28;20430;-64
2020/12/11 06:12:09;;;;;;;16.80;11.73;;;1.50;99.90;;;;;;5019638;28;20921;-66
2020/12/11 06:15:04;;;;;;;17.00;11.53;;;1.50;99.90;;;;;;5032102;28;20508;-65
2020/12/11 06:17:38;;;;;;;17.83;12.93;;;1.50;99.90;;;;;;5033803;28;20446;-64
2020/12/11 06:20:07;;;;;;;19.17;12.47;;;1.60;99.90;;;;;;5029435;28;20983;-64
2020/12/11 06:22:33;;;;;;;15.90;12.27;;;1.50;99.90;;;;;;5017339;28;20828;-66
2020/12/11 06:25:18;;;;;;;17.67;12.40;;;1.60;99.90;;;;;;5024883;28;20418;-64
2020/12/11 06:27:44;;;;;;;15.43;11.43;;;1.70;99.90;;;;;;5030485;28;20426;-66
2020/12/11 06:30:30;;;;;;;16.63;12.60;;;1.60;99.90;;;;;;5022156;28;20418;-65
2020/12/11 06:32:58;;;;;;;14.53;11.43;;;1.60;99.90;;;;;;5027694;28;20239;-64
2020/12/11 06:35:24;;;;;;;19.87;12.33;;;1.50;99.90;;;;;;5025246;28;20451;-65
2020/12/11 06:37:50;;;;;;;15.47;12.37;;;1.50;99.90;;;;;;5016334;28;20526;-66
2020/12/11 06:40:16;;;;;;;15.67;12.20;;;1.50;99.90;;;;;;5025751;28;20455;-65
2020/12/11 06:42:43;;;;;;;14.90;11.83;;;1.50;99.90;;;;;;5022614;28;20465;-64
2020/12/11 06:45:25;;;;;;;18.77;11.33;;;1.50;99.90;;;;;;5022431;28;20184;-65
2020/12/11 06:47:53;;;;;;;16.73;11.97;;;1.50;99.90;;;;;;5027081;28;20424;-65
2020/12/11 06:50:21;;;;;;;16.90;13.00;;;1.60;99.90;;;;;;5011759;28;20434;-64
2020/12/11 06:52:47;;;;;;;17.13;13.37;;;1.60;99.90;;;;;;5018284;28;20418;-65
2020/12/11 06:55:13;;;;;;;16.33;12.60;;;1.60;99.90;;;;;;5023767;28;20953;-66
2020/12/11 06:57:40;;;;;;;17.77;13.00;;;1.50;99.90;;;;;;5022479;28;20176;-63
2020/12/11 07:00:28;;;;;;;17.73;12.10;;;1.60;99.90;;;;;;5022506;28;20268;-64
2020/12/11 07:03:32;;;;;;;15.47;12.03;;;1.50;99.90;;;;;;5011775;28;20822;-66
2020/12/11 07:06:00;;;;;;;17.67;12.37;;;1.60;99.90;;;;;;4940631;29;20422;-67
2020/12/11 07:08:26;;;;;;;17.23;12.73;;;1.70;99.90;;;;;;4936328;29;21004;-64
2020/12/11 07:10:52;;;;;;;22.63;12.57;;;1.70;99.90;;;;;;4938678;29;20450;-64
2020/12/11 07:13:17;;;;;;;17.20;12.07;;;1.80;99.90;;;;;;4933629;29;20543;-65
2020/12/11 07:15:43;;;;;;;17.37;12.93;;;1.80;99.90;;;;;;4944782;28;20454;-65
2020/12/11 07:18:14;;;;;;;16.77;12.27;;;1.80;99.90;;;;;;4915016;29;20204;-66
2020/12/11 07:20:47;;;;;;;18.10;12.93;;;1.80;99.90;;;;;;4923701;29;20187;-64
2020/12/11 07:23:13;;;;;;;19.97;12.50;;;1.90;99.90;;;;;;4919240;29;20511;-66
2020/12/11 07:25:39;;;;;;;15.87;12.43;;;1.90;99.90;;;;;;4924170;29;20496;-64
2020/12/11 07:28:05;;;;;;;16.40;12.93;;;1.90;99.90;;;;;;4916739;29;20419;-64
2020/12/11 07:30:30;;;;;;;25.17;13.17;;;2.00;99.90;;;;;;4913617;29;20431;-64
2020/12/11 07:32:56;;;;;;;16.60;11.87;;;1.90;99.90;;;;;;4912937;29;20188;-64
2020/12/11 07:35:23;;;;;;;14.60;11.87;;;2.00;99.90;;;;;;4917897;29;20258;-67
2020/12/11 07:37:50;;;;;;;16.17;12.43;;;2.00;99.90;;;;;;5007940;28;20199;-64
2020/12/11 07:40:16;;;;;;;18.50;13.03;;;2.00;99.90;;;;;;5008084;28;20826;-64
2020/12/11 07:42:50;;;;;;;18.90;13.53;;;2.10;99.90;;;;;;5010955;28;20757;-65
2020/12/11 07:45:35;;;;;;;17.97;13.13;;;2.10;99.90;;;;;;5002721;28;20905;-65
2020/12/11 07:48:01;;;;;;;19.73;13.33;;;2.10;99.90;;;;;;4975746;28;20424;-67
2020/12/11 07:50:28;;;;;;;17.57;13.07;;;2.20;99.90;;;;;;5008355;28;20420;-66
2020/12/11 07:52:58;;;;;;;17.73;12.70;;;2.20;99.90;;;;;;5003708;28;20416;-68
2020/12/11 07:55:29;;;;;;;23.07;13.00;;;2.20;99.90;;;;;;4999854;28;21048;-67
2020/12/11 07:57:58;;;;;;;19.57;12.47;;;2.30;99.90;;;;;;5001657;28;20419;-66
2020/12/11 08:00:25;;;;;;;23.97;12.87;;;2.40;99.90;;;;;;4991377;28;20417;-65
2020/12/11 08:03:08;;;;;;;18.30;12.70;;;2.40;99.90;;;;;;4997602;28;20417;-66
2020/12/11 08:05:38;;;;;;;22.47;11.73;;;2.40;99.90;;;;;;4996592;28;20411;-66
2020/12/11 08:08:05;;;;;;;20.30;12.47;;;2.40;99.90;;;;;;4997733;28;20435;-65
2020/12/11 08:10:42;;;;;;;20.10;12.83;;;2.40;99.90;;;;;;4997398;28;20418;-65
2020/12/11 08:13:16;;;;;;;19.33;12.70;;;2.40;99.90;;;;;;5011994;28;20443;-66
2020/12/11 08:15:43;;;;;;;20.30;12.80;;;2.50;99.90;;;;;;5005351;28;20461;-65
2020/12/11 08:18:24;;;;;;;17.23;12.30;;;2.50;99.90;;;;;;5032714;28;20537;-64
2020/12/11 08:21:01;;;;;;;15.87;13.00;;;2.60;99.90;;;;;;5022005;28;20462;-66
2020/12/11 08:23:42;;;;;;;18.20;13.30;;;2.70;99.90;;;;;;5028377;28;20414;-64
2020/12/11 08:26:16;;;;;;;21.30;14.13;;;2.60;99.90;;;;;;5024366;28;20410;-65
2020/12/11 08:28:44;;;;;;;18.67;12.40;;;2.60;99.90;;;;;;5020183;28;20422;-63
2020/12/11 08:31:17;;;;;;;17.67;13.37;;;2.60;99.90;;;;;;5021229;28;20425;-65
2020/12/11 08:33:43;;;;;;;21.53;13.43;;;2.60;99.90;;;;;;5027352;28;20465;-65
2020/12/11 08:36:25;;;;;;;21.47;12.43;;;2.50;99.90;;;;;;5022478;28;20473;-66
2020/12/11 08:39:29;;;;;;;22.13;13.97;;;2.50;99.90;;;;;;5015674;28;20184;-66
2020/12/11 08:50:18;;;;;;;22.03;15.80;;;2.60;99.90;;;;;;4980642;28;20471;-65
2020/12/11 08:52:43;;;;;;;22.90;14.73;;;2.60;99.90;;;;;;4973264;28;20432;-65
2020/12/11 08:55:09;;;;;;;18.90;13.47;;;2.60;99.90;;;;;;4974068;28;20456;-64
2020/12/11 08:57:35;;;;;;;18.13;13.40;;;2.80;99.90;;;;;;4981045;28;20680;-66
2020/12/11 09:00:00;;;;;;;17.77;13.67;;;2.90;99.90;;;;;;4985055;28;20185;-67
2020/12/11 09:02:26;;;;;;;20.97;14.30;;;3.00;99.90;;;;;;4982876;28;20188;-64
2020/12/11 09:04:53;;;;;;;18.13;13.30;;;3.00;99.90;;;;;;4984320;28;20188;-65
2020/12/11 09:07:19;;;;;;;18.30;12.87;;;3.10;99.90;;;;;;4991273;28;20289;-64
2020/12/11 09:09:44;;;;;;;16.27;12.90;;;3.10;99.90;;;;;;4986173;28;20456;-65
2020/12/11 09:12:10;;;;;;;20.67;14.60;;;3.10;99.90;;;;;;4991664;28;20245;-65
2020/12/11 09:14:36;;;;;;;18.13;12.73;;;3.10;99.90;;;;;;5014421;28;20260;-65
2020/12/11 09:17:01;;;;;;;17.33;13.03;;;3.10;99.90;;;;;;5016208;28;20331;-64
2020/12/11 09:19:27;;;;;;;17.00;13.03;;;3.10;99.90;;;;;;5013321;28;20180;-65
2020/12/11 09:21:53;;;;;;;18.80;13.67;;;3.20;99.90;;;;;;5013850;28;20175;-66
2020/12/11 09:24:19;;;;;;;18.23;13.90;;;3.30;99.90;;;;;;5013007;28;20250;-66
2020/12/11 09:26:44;;;;;;;16.00;12.67;;;3.20;99.90;;;;;;4995571;28;20424;-64
2020/12/11 09:31:37;;;;;;;19.33;13.40;;;3.20;99.90;;;;;;5013249;28;20177;-65
2020/12/11 09:34:02;;;;;;;18.53;13.93;;;3.20;99.90;;;;;;5013501;28;20212;-67
2020/12/11 09:36:28;;;;;;;21.10;13.80;;;3.20;99.90;;;;;;5013395;28;20912;-65
2020/12/11 09:38:54;;;;;;;22.80;13.60;;;3.40;99.90;;;;;;5013207;28;20260;-65
2020/12/11 09:41:27;;;;;;;24.23;14.40;;;3.20;99.90;;;;;;5013102;28;20581;-67
2020/12/11 09:48:57;;;;;;;19.67;13.30;;;3.20;99.90;;;;;;5012921;28;20179;-65
2020/12/11 09:54:08;;;;;;;19.67;13.27;;;3.30;99.90;;;;;;5012913;28;20423;-64
2020/12/11 09:56:34;;;;;;;21.53;13.80;;;3.30;99.90;;;;;;5011766;28;20411;-65
2020/12/11 09:59:06;;;;;;;20.27;14.10;;;3.30;99.90;;;;;;5012485;28;20431;-65
2020/12/11 10:01:49;;;;;;;17.70;13.63;;;3.30;99.90;;;;;;5012286;28;20264;-66
2020/12/11 10:04:15;;;;;;;19.27;13.13;;;3.40;99.90;;;;;;5012310;28;20506;-64
2020/12/11 10:06:40;;;;;;;22.47;13.20;;;3.40;99.90;;;;;;5012622;28;20566;-64
2020/12/11 10:09:06;;;;;;;20.00;13.77;;;3.40;99.90;;;;;;5012653;28;21158;-64
2020/12/11 10:11:32;;;;;;;23.27;14.70;;;3.40;99.90;;;;;;5012531;28;20176;-68
2020/12/11 10:16:53;;;;;;;18.20;13.80;;;3.40;99.90;;;;;;4991074;28;20685;-66
2020/12/11 10:19:20;;;;;;;22.50;14.57;;;3.40;99.90;;;;;;5021999;28;20417;-66
2020/12/11 10:21:50;;;;;;;19.43;14.20;;;3.50;99.90;;;;;;5024685;28;20414;-65
2020/12/11 10:24:16;;;;;;;18.60;13.73;;;3.50;99.90;;;;;;5026447;28;20964;-64
2020/12/11 10:26:42;;;;;;;18.87;14.20;;;3.40;99.90;;;;;;5023103;28;20422;-64
2020/12/11 10:29:09;;;;;;;20.23;14.37;;;3.40;99.90;;;;;;5029661;28;20410;-65
2020/12/11 10:31:35;;;;;;;16.67;13.37;;;3.50;99.90;;;;;;5031398;28;20469;-67
2020/12/11 10:34:00;;;;;;;17.60;13.83;;;3.50;99.90;;;;;;5024129;28;20426;-64
2020/12/11 10:36:33;;;;;;;17.70;13.37;;;3.50;99.90;;;;;;5030391;28;20246;-65
2020/12/11 10:38:58;;;;;;;18.50;13.83;;;3.60;99.90;;;;;;5028826;28;20250;-65
2020/12/11 10:41:25;;;;;;;19.47;14.10;;;3.70;99.90;;;;;;5026123;28;20419;-66
2020/12/11 10:43:52;;;;;;;18.17;13.50;;;3.80;99.90;;;;;;5000049;28;20207;-65
2020/12/11 10:46:19;;;;;;;22.73;14.23;;;3.90;99.90;;;;;;5029110;28;20477;-67
2020/12/11 10:48:45;;;;;;;17.47;13.10;;;3.90;99.90;;;;;;5031055;28;20414;-66
2020/12/11 10:51:16;;;;;;;18.60;13.60;;;3.90;99.90;;;;;;5024762;28;20415;-64
2020/12/11 10:53:42;;;;;;;17.37;12.40;;;4.10;99.90;;;;;;5015556;28;20191;-66
2020/12/11 10:56:09;;;;;;;16.53;12.83;;;4.30;99.90;;;;;;5011722;28;20513;-67
2020/12/11 10:58:35;;;;;;;25.17;13.70;;;4.40;99.50;;;;;;5011326;28;20912;-67
2020/12/11 11:01:05;;;;;;;16.90;12.93;;;4.50;99.90;;;;;;5011621;28;20502;-68
2020/12/11 11:03:32;;;;;;;18.80;13.40;;;4.60;99.90;;;;;;5011478;28;20431;-65
2020/12/11 11:06:10;;;;;;;18.27;12.43;;;4.70;99.90;;;;;;5011008;28;20492;-67
2020/12/11 11:08:44;;;;;;;18.03;13.70;;;4.60;99.60;;;;;;5011846;28;20423;-64
2020/12/11 11:11:09;;;;;;;18.03;13.03;;;4.60;99.70;;;;;;5011644;28;20415;-65
2020/12/11 11:16:04;;;;;;;17.37;12.67;;;4.70;99.90;;;;;;5031069;28;20207;-68
2020/12/11 11:18:36;;;;;;;17.60;13.10;;;4.60;99.90;;;;;;5011478;28;20942;-66
2020/12/11 11:29:46;;;;;;;17.37;11.93;;;4.70;99.50;;;;;;4952930;28;20404;-66
2020/12/11 11:32:12;;;;;;;15.97;12.43;;;4.70;98.90;;;;;;5011067;28;20888;-66
2020/12/11 11:34:37;;;;;;;16.40;12.03;;;4.90;99.10;;;;;;5011048;28;20611;-65
2020/12/11 11:37:03;;;;;;;18.87;12.93;;;4.90;99.40;;;;;;5000763;28;20651;-64
2020/12/11 11:39:29;;;;;;;19.10;12.80;;;5.00;99.10;;;;;;5009058;28;20203;-65
2020/12/11 11:41:55;;;;;;;17.40;12.30;;;5.10;99.90;;;;;;5010965;28;20227;-64
2020/12/11 11:46:48;;;;;;;18.57;14.17;;;5.30;99.90;;;;;;4997776;28;20419;-64
2020/12/11 11:49:17;;;;;;;22.53;15.70;;;5.30;98.70;;;;;;5011451;28;20183;-63
2020/12/11 11:51:48;;;;;;;20.57;14.43;;;5.20;98.90;;;;;;5002462;28;20463;-67
2020/12/11 11:54:14;;;;;;;25.30;15.40;;;5.30;99.10;;;;;;4997706;28;20444;-65
2020/12/11 11:56:40;;;;;;;32.77;15.67;;;4.80;98.10;;;;;;5004172;28;20462;-65
2020/12/11 11:59:05;;;;;;;22.97;15.33;;;4.70;99.70;;;;;;5006778;28;20262;-66
2020/12/11 12:01:31;;;;;;;22.77;15.07;;;4.80;99.90;;;;;;5011070;28;20268;-65
2020/12/11 12:03:56;;;;;;;23.53;15.67;;;4.80;99.90;;;;;;4995365;28;20629;-66
2020/12/11 12:06:22;;;;;;;27.20;15.17;;;4.90;99.90;;;;;;4995042;28;20594;-66
2020/12/11 12:08:48;;;;;;;22.17;15.77;;;4.70;99.90;;;;;;4994832;28;20181;-67
2020/12/11 12:11:14;;;;;;;21.87;15.07;;;4.60;99.80;;;;;;4995125;28;20264;-65
2020/12/11 12:13:39;;;;;;;24.13;14.87;;;4.50;99.90;;;;;;4995369;28;20188;-65
2020/12/11 12:16:05;;;;;;;20.70;14.33;;;4.80;99.90;;;;;;4979956;28;20464;-64
2020/12/11 12:18:31;;;;;;;24.83;14.83;;;4.40;99.90;;;;;;5014609;28;20176;-65
2020/12/11 12:21:04;;;;;;;23.30;14.73;;;4.30;99.90;;;;;;5014401;28;20176;-66
2020/12/11 12:28:57;;;;;;;21.80;15.07;;;4.20;99.90;;;;;;5013949;28;20457;-64
2020/12/11 12:31:28;;;;;;;22.47;14.03;;;4.20;99.90;;;;;;5014508;28;20434;-66
2020/12/11 12:36:44;;;;;;;17.90;13.37;;;4.20;99.90;;;;;;5014260;28;20431;-65
2020/12/11 12:39:26;;;;;;;20.90;13.90;;;4.20;99.90;;;;;;5013818;28;20546;-65
2020/12/11 12:44:36;;;;;;;24.17;14.17;;;4.10;99.90;;;;;;5013860;28;20924;-66
2020/12/11 12:47:02;;;;;;;24.40;16.33;;;4.10;99.90;;;;;;5013991;28;20420;-66
2020/12/11 12:49:27;;;;;;;21.97;15.83;;;4.20;99.90;;;;;;5013937;28;20184;-66
2020/12/11 12:51:53;;;;;;;32.60;16.30;;;4.40;99.90;;;;;;5013605;28;20539;-66
2020/12/11 12:54:19;;;;;;;28.63;15.33;;;4.20;99.90;;;;;;5014034;28;20200;-64
2020/12/11 12:56:47;;;;;;;21.33;14.67;;;4.20;99.90;;;;;;5014174;28;20510;-64
2020/12/11 12:59:23;;;;;;;22.13;14.67;;;4.40;99.90;;;;;;5013017;28;20180;-65
2020/12/11 13:07:05;;;;;;;22.93;15.07;;;4.50;99.90;;;;;;5013976;28;20419;-64
2020/12/11 13:09:31;;;;;;;21.97;14.57;;;4.50;99.70;;;;;;5013648;28;20431;-65
2020/12/11 13:11:57;;;;;;;19.93;14.43;;;4.50;99.90;;;;;;5013637;28;20478;-63
2020/12/11 13:14:23;;;;;;;17.90;12.87;;;4.50;99.90;;;;;;5013623;28;20193;-65
2020/12/11 13:16:48;;;;;;;18.00;12.80;;;4.40;99.90;;;;;;5014786;28;20271;-64
2020/12/11 13:19:16;;;;;;;19.27;13.10;;;4.30;99.90;;;;;;5013924;28;20592;-65
2020/12/11 13:22:05;;;;;;;19.83;14.70;;;4.10;99.90;;;;;;5013765;28;20207;-64
2020/12/11 13:27:24;;;;;;;17.17;12.20;;;4.10;99.90;;;;;;5013824;28;20418;-65
2020/12/11 13:29:50;;;;;;;18.17;13.00;;;4.00;99.90;;;;;;4995872;28;20415;-64
2020/12/11 13:32:16;;;;;;;20.03;13.17;;;4.00;99.90;;;;;;5013647;28;20470;-65
2020/12/11 13:34:42;;;;;;;19.30;13.77;;;4.00;99.90;;;;;;5013106;28;20961;-64
2020/12/11 13:37:08;;;;;;;23.60;14.87;;;4.10;99.90;;;;;;5013181;28;20200;-66